Pagrindinis puslapis
METAR-TAF:

METAR-TAF

Oro uostai :

Kororas, Babeltuapas, Palau

platuma: 07-22N, ilguma: 134-32E, Aukštis: 54 m

Dabartinis oras

Ataskaita buvo paskelbta 46 minutes, ne 04:50 UTC
Vėjas 12 kt iš Vakarų su gūsio iki 18 kt
Temperatūra 27°C
Drėgmė 84%
Slėgis 1011 hPa
Matomumas: 24.1 km
Su prošvaistėmis ne aukštis 1600 ft
Su prošvaistėmis ne aukštis 12000 ft
Su prošvaistėmis ne aukštis 30000 ft

METAR: PTRO 180450Z 27012G18KT 15SM BKN016 BKN120 BKN300 27/24 A2984

Laikas: 14:36 (05:36 UTC)

Prognozė

Ataskaita buvo paskelbta 1 valandą ir 52 minutes, ne 03:44 UTC
Prognozė galioja nuo 18 metu 04 UTC su 18 metu 24 UTC
Vėjas 13 kt iš Vakarų
Matomumas: 10 km
Išsisklaidę debesys ne aukštis 1600 ft
Su prošvaistėmis ne aukštis 12000 ft
Liūtis kaimynystėje
Laikinai
nuo 18 metu 04 UTC su 18 metu 08 UTC
Vėjas 20 kt iš Vakarų
Su prošvaistėmis ne aukštis 1600 ft
Su prošvaistėmis ne aukštis 12000 ft
lietus

TAF: PTRO 180344Z 1804/1824 26013KT P6SM VCSH SCT016 BKN120 TEMPO 1804/1808 27020KT -SHRA BKN016 BKN120

Orai ataskaitas ir orų prognozės (METAR, TAF).

turimą stotys yra geltonos ir raudonos taškus žemėlapyje.

Perkelti pele per norėdami pamatyti stoties vardą.

Tada spustelėkite, norėdami matyti oro stebėjimo ir prognozės.

Norėdami pakeisti žemėlapį: spustelėkite ant žalios mygtukų su juodo kryžiaus žemyn,; žalią mygtuką su brūkšneliu, jei norite nutolinti; arba žalių rodyklių gretimoms žemėlapius.


METAR-TAF: